Terminal Aerodrome Forecast
Issued by NWS Charleston, WV

Current Version | Previous Version | Text Only | Print | Product List | Glossary Off
Versions: 1 2 3 4 5 6 7 8 9 10 11 12 13 14 15 16 17 18 19 20 21 22

000
FTUS41 KRLX 240300 AAA
TAFEKN
TAF AMD
KEKN 240301Z 2403/2424 17016G28KT 6SM -SHRA BR OVC035
     FM240500 17014G22KT 5SM BR BKN025
     FM240700 17013G23KT 4SM BR OVC015
     FM241000 20011G19KT 6SM BR BKN025
     FM241200 19010G17KT P6SM SCT030
     FM241400 20013G21KT P6SM SCT100
     FM241700 21017G31KT P6SM SCT090=

USA.gov is the U.S. government's official web portal to all federal, state and local government web resources and services.